Weisshorn — V2ER — position and weather

sailwx.info

Track history (hours):
 
Tides and Currents Weather Stations Pressure Air Temp Water Temp Dewpoint Dewpoint Depression Visibility Wind Speed Wind Dir Waves Ship Positions

Weisshorn

Last reported at 2017-Oct-14 16:24 UTC. Time now 2017-Oct-16 22:29 UTC.
Position N 25°25' W 079°37'.

Length 157.1 m; beam 23.5 m; draft 9.3 m.

Type: Ship (hazmat cat A). MMSI: 304010697.

Date/timePositionNaut miles runAvg speedWind from/ knotsBaromVisibWave heightAir tempDewpointWater temp
2017-Oct-14 16:24N 25°25' W 079°37'615.1
2017-Oct-14 16:00N 25°31' W 079°38'714.7
2017-Oct-14 15:30N 25°39' W 079°39'714.3
2017-Oct-14 15:00N 25°46' W 079°39'612.5
2017-Oct-14 14:30N 25°52' W 079°41'713.9
2017-Oct-14 14:00N 25°56' W 079°47'815.4
2017-Oct-14 13:30N 26°00' W 079°54'815.7
2017-Oct-14 13:00N 26°05' W 080°01'510.4
2017-Oct-14 12:30N 26°05' W 080°07'2 2.7
2017-Oct-14 11:56N 26°04' W 080°07'0 0.0
2017-Oct-14 11:29N 26°04' W 080°07'0 0.0
2017-Oct-14 10:59N 26°04' W 080°07'0 0.0
2017-Oct-14 10:29N 26°04' W 080°07'0 0.0
2017-Oct-14 09:56N 26°04' W 080°07'0 0.0
2017-Oct-14 09:29N 26°04' W 080°07'0 0.0
2017-Oct-14 08:59N 26°04' W 080°07'0 0.0
2017-Oct-14 08:29N 26°04' W 080°07'0 0.0
2017-Oct-14 07:59N 26°04' W 080°07'0 0.0
2017-Oct-14 07:29N 26°04' W 080°07'0 0.0
2017-Oct-14 06:59N 26°04' W 080°07'0 0.0
2017-Oct-14 06:29N 26°04' W 080°07'0 0.0
2017-Oct-14 05:59N 26°04' W 080°07'0 0.0
2017-Oct-14 05:29N 26°04' W 080°07'0 0.0
2017-Oct-14 04:59N 26°04' W 080°07'0 0.0
2017-Oct-14 04:29N 26°04' W 080°07'0 0.0
2017-Oct-14 03:59N 26°04' W 080°07'0 0.0
2017-Oct-14 03:29N 26°04' W 080°07'0 0.0
2017-Oct-14 02:59N 26°04' W 080°07'0 0.0
2017-Oct-14 02:29N 26°04' W 080°07'0 0.0
2017-Oct-14 01:59N 26°04' W 080°07'0 0.0
2017-Oct-14 00:29N 26°04' W 080°07'0 0.0
2017-Oct-13 23:20N 26°04' W 080°07'0 0.0
2017-Oct-13 22:59N 26°04' W 080°07'0 0.0
2017-Oct-13 22:29N 26°04' W 080°07'0 0.0
2017-Oct-13 21:59N 26°04' W 080°07'0 0.0
2017-Oct-13 21:29N 26°04' W 080°07'0 0.0
2017-Oct-13 20:59N 26°04' W 080°07'0 0.0
2017-Oct-13 20:30N 26°04' W 080°07'1 2.7
2017-Oct-13 20:00N 26°05' W 080°07'4 7.9
2017-Oct-13 19:30N 26°05' W 080°02'2 4.8
2017-Oct-13 19:00N 26°07' W 080°01'611.1
2017-Oct-13 18:30N 26°13' W 079°59'815.9
2017-Oct-13 18:00N 26°21' W 079°59'815.8
2017-Oct-13 17:30N 26°28' W 079°58'815.2
2017-Oct-13 17:00N 26°36' W 079°59'1014.8
2017-Oct-13 16:22N 26°46' W 079°58'514.3
2017-Oct-13 16:00N 26°51' W 079°58'714.2
2017-Oct-13 15:30N 26°58' W 079°58'  
2017-Oct-10 23:59N 26°24' W 079°58'1018.1
2017-Oct-10 23:25N 26°13' W 079°57'614.6
2017-Oct-10 23:00N 26°08' W 079°59'611.7
2017-Oct-10 22:31N 26°06' W 080°05'2 4.0
2017-Oct-10 21:59N 26°04' W 080°07'0 0.0
2017-Oct-10 21:29N 26°04' W 080°07'0 0.0
2017-Oct-10 20:59N 26°04' W 080°07'0 0.0
2017-Oct-10 20:29N 26°04' W 080°07'0 0.0
2017-Oct-10 19:59N 26°04' W 080°07'0 0.0
2017-Oct-10 19:29N 26°04' W 080°07'0 0.0
2017-Oct-10 18:59N 26°04' W 080°07'0 0.0
2017-Oct-10 18:29N 26°04' W 080°07'0 0.0
2017-Oct-10 17:59N 26°04' W 080°07'0 0.0
2017-Oct-10 17:26N 26°04' W 080°07'0 0.0
2017-Oct-10 16:59N 26°04' W 080°07'0 0.0
2017-Oct-10 16:29N 26°04' W 080°07'0 0.0
2017-Oct-10 15:59N 26°04' W 080°07'0 0.0
2017-Oct-10 15:29N 26°04' W 080°07'0 0.0
2017-Oct-10 14:59N 26°04' W 080°07'0 0.0
2017-Oct-10 13:59N 26°04' W 080°07'0 0.0
2017-Oct-10 13:29N 26°04' W 080°07'0 0.0
2017-Oct-10 12:53N 26°04' W 080°07'0 0.0
2017-Oct-10 12:29N 26°04' W 080°07'0 0.0
2017-Oct-10 11:59N 26°04' W 080°07'0 0.0
2017-Oct-10 11:29N 26°04' W 080°07'0 0.0
2017-Oct-10 10:56N 26°04' W 080°07'0 0.9
2017-Oct-10 10:30N 26°04' W 080°07'2 4.1
2017-Oct-10 10:00N 26°06' W 080°05'3 6.1
2017-Oct-10 09:30N 26°04' W 080°02'1 2.0
2017-Oct-10 09:00N 26°04' W 080°01'1 2.0
2017-Oct-10 08:30N 26°03' W 080°01'3 4.8
2017-Oct-10 07:59N 26°00' W 079°60'715.0
2017-Oct-10 07:30N 25°55' W 079°55'917.3
2017-Oct-10 07:00N 25°48' W 079°48'917.5
2017-Oct-10 06:30N 25°41' W 079°44'1017.3
2017-Oct-10 05:57N 25°32' W 079°41'  
Track history (hours):
 
Tides and Currents Weather Stations Pressure Air Temp Water Temp Dewpoint Dewpoint Depression Visibility Wind Speed Wind Dir Waves Ship Positions

Weisshorn

Last reported at 2017-Oct-14 16:24 UTC. Time now 2017-Oct-16 22:29 UTC.
Position N 25°25' W 079°37'.

Length 157.1 m; beam 23.5 m; draft 9.3 m.

Type: Ship (hazmat cat A). MMSI: 304010697.

Date/timePositionNaut miles runAvg speedWind from/ knotsBaromVisibWave heightAir tempDewpointWater temp
2017-Oct-14 16:24N 25°25' W 079°37'615.1
2017-Oct-14 16:00N 25°31' W 079°38'714.7
2017-Oct-14 15:30N 25°39' W 079°39'714.3
2017-Oct-14 15:00N 25°46' W 079°39'612.5
2017-Oct-14 14:30N 25°52' W 079°41'713.9
2017-Oct-14 14:00N 25°56' W 079°47'815.4
2017-Oct-14 13:30N 26°00' W 079°54'815.7
2017-Oct-14 13:00N 26°05' W 080°01'510.4
2017-Oct-14 12:30N 26°05' W 080°07'2 2.7
2017-Oct-14 11:56N 26°04' W 080°07'0 0.0
2017-Oct-14 11:29N 26°04' W 080°07'0 0.0
2017-Oct-14 10:59N 26°04' W 080°07'0 0.0
2017-Oct-14 10:29N 26°04' W 080°07'0 0.0
2017-Oct-14 09:56N 26°04' W 080°07'0 0.0
2017-Oct-14 09:29N 26°04' W 080°07'0 0.0
2017-Oct-14 08:59N 26°04' W 080°07'0 0.0
2017-Oct-14 08:29N 26°04' W 080°07'0 0.0
2017-Oct-14 07:59N 26°04' W 080°07'0 0.0
2017-Oct-14 07:29N 26°04' W 080°07'0 0.0
2017-Oct-14 06:59N 26°04' W 080°07'0 0.0
2017-Oct-14 06:29N 26°04' W 080°07'0 0.0
2017-Oct-14 05:59N 26°04' W 080°07'0 0.0
2017-Oct-14 05:29N 26°04' W 080°07'0 0.0
2017-Oct-14 04:59N 26°04' W 080°07'0 0.0
2017-Oct-14 04:29N 26°04' W 080°07'0 0.0
2017-Oct-14 03:59N 26°04' W 080°07'0 0.0
2017-Oct-14 03:29N 26°04' W 080°07'0 0.0
2017-Oct-14 02:59N 26°04' W 080°07'0 0.0
2017-Oct-14 02:29N 26°04' W 080°07'0 0.0
2017-Oct-14 01:59N 26°04' W 080°07'0 0.0
2017-Oct-14 00:29N 26°04' W 080°07'0 0.0
2017-Oct-13 23:20N 26°04' W 080°07'0 0.0
2017-Oct-13 22:59N 26°04' W 080°07'0 0.0
2017-Oct-13 22:29N 26°04' W 080°07'0 0.0
2017-Oct-13 21:59N 26°04' W 080°07'0 0.0
2017-Oct-13 21:29N 26°04' W 080°07'0 0.0
2017-Oct-13 20:59N 26°04' W 080°07'0 0.0
2017-Oct-13 20:30N 26°04' W 080°07'1 2.7
2017-Oct-13 20:00N 26°05' W 080°07'4 7.9
2017-Oct-13 19:30N 26°05' W 080°02'2 4.8
2017-Oct-13 19:00N 26°07' W 080°01'611.1
2017-Oct-13 18:30N 26°13' W 079°59'815.9
2017-Oct-13 18:00N 26°21' W 079°59'815.8
2017-Oct-13 17:30N 26°28' W 079°58'815.2
2017-Oct-13 17:00N 26°36' W 079°59'1014.8
2017-Oct-13 16:22N 26°46' W 079°58'514.3
2017-Oct-13 16:00N 26°51' W 079°58'714.2
2017-Oct-13 15:30N 26°58' W 079°58'  
2017-Oct-10 23:59N 26°24' W 079°58'1018.1
2017-Oct-10 23:25N 26°13' W 079°57'614.6
2017-Oct-10 23:00N 26°08' W 079°59'611.7
2017-Oct-10 22:31N 26°06' W 080°05'2 4.0
2017-Oct-10 21:59N 26°04' W 080°07'0 0.0
2017-Oct-10 21:29N 26°04' W 080°07'0 0.0
2017-Oct-10 20:59N 26°04' W 080°07'0 0.0
2017-Oct-10 20:29N 26°04' W 080°07'0 0.0
2017-Oct-10 19:59N 26°04' W 080°07'0 0.0
2017-Oct-10 19:29N 26°04' W 080°07'0 0.0
2017-Oct-10 18:59N 26°04' W 080°07'0 0.0
2017-Oct-10 18:29N 26°04' W 080°07'0 0.0
2017-Oct-10 17:59N 26°04' W 080°07'0 0.0
2017-Oct-10 17:26N 26°04' W 080°07'0 0.0
2017-Oct-10 16:59N 26°04' W 080°07'0 0.0
2017-Oct-10 16:29N 26°04' W 080°07'0 0.0
2017-Oct-10 15:59N 26°04' W 080°07'0 0.0
2017-Oct-10 15:29N 26°04' W 080°07'0 0.0
2017-Oct-10 14:59N 26°04' W 080°07'0 0.0
2017-Oct-10 13:59N 26°04' W 080°07'0 0.0
2017-Oct-10 13:29N 26°04' W 080°07'0 0.0
2017-Oct-10 12:53N 26°04' W 080°07'0 0.0
2017-Oct-10 12:29N 26°04' W 080°07'0 0.0
2017-Oct-10 11:59N 26°04' W 080°07'0 0.0
2017-Oct-10 11:29N 26°04' W 080°07'0 0.0
2017-Oct-10 10:56N 26°04' W 080°07'0 0.9
2017-Oct-10 10:30N 26°04' W 080°07'2 4.1
2017-Oct-10 10:00N 26°06' W 080°05'3 6.1
2017-Oct-10 09:30N 26°04' W 080°02'1 2.0
2017-Oct-10 09:00N 26°04' W 080°01'1 2.0
2017-Oct-10 08:30N 26°03' W 080°01'3 4.8
2017-Oct-10 07:59N 26°00' W 079°60'715.0
2017-Oct-10 07:30N 25°55' W 079°55'917.3
2017-Oct-10 07:00N 25°48' W 079°48'917.5
2017-Oct-10 06:30N 25°41' W 079°44'1017.3
2017-Oct-10 05:57N 25°32' W 079°41'  

Dump ship's entire track history